createdAt,value
2023-03-29T00:07:21.457Z,27.43
2023-03-29T05:15:23.534Z,26.96
2023-03-29T05:19:23.512Z,26.91
2023-03-29T05:23:23.447Z,26.94
2023-03-29T05:27:23.398Z,26.95
2023-03-29T05:31:23.394Z,26.95
2023-03-29T05:35:23.321Z,26.99
2023-03-29T05:39:23.320Z,27.03
2023-03-29T05:43:23.270Z,27.06
2023-03-29T05:47:23.407Z,27.06
2023-03-29T05:51:23.318Z,27.15
2023-03-29T05:55:23.729Z,27.26
2023-03-29T05:59:23.226Z,27.44
2023-03-29T06:03:23.469Z,27.58
2023-03-29T06:07:23.657Z,27.71
2023-03-29T06:11:23.168Z,27.80
2023-03-29T06:15:23.173Z,27.91
2023-03-29T06:19:23.156Z,27.98
2023-03-29T06:23:23.019Z,28.04
2023-03-29T06:27:23.023Z,28.08
2023-03-29T06:31:23.023Z,28.12
2023-03-29T06:35:22.887Z,28.13
2023-03-29T06:39:22.927Z,28.20
2023-03-29T06:43:22.819Z,28.16
2023-03-29T06:47:22.855Z,28.19
2023-03-29T06:51:23.381Z,28.27
2023-03-29T06:55:23.248Z,28.27
2023-03-29T06:59:22.685Z,28.26
2023-03-29T07:03:22.688Z,28.35
2023-03-29T07:07:22.653Z,28.36
2023-03-29T07:11:22.614Z,28.39
2023-03-29T07:15:22.547Z,28.43
2023-03-29T07:19:22.541Z,28.43
2023-03-29T07:23:22.518Z,28.52
2023-03-29T07:27:22.468Z,28.50
2023-03-29T07:31:22.663Z,28.52
2023-03-29T07:35:25.856Z,28.49
2023-03-29T07:39:22.398Z,28.44
2023-03-29T07:43:22.677Z,28.47
2023-03-29T07:47:22.360Z,28.40
2023-03-29T07:51:22.703Z,28.53
2023-03-29T07:55:22.322Z,28.60
2023-03-29T07:59:22.250Z,28.63
2023-03-29T08:03:22.258Z,28.66
2023-03-29T08:07:22.130Z,28.66
2023-03-29T08:11:22.271Z,28.70
2023-03-29T08:15:22.542Z,28.73
2023-03-29T08:19:22.501Z,28.70
2023-03-29T08:23:22.475Z,28.69
2023-03-29T08:27:22.431Z,28.64
2023-03-29T08:31:22.359Z,28.59
2023-03-29T08:35:22.299Z,28.47
2023-03-29T08:39:22.524Z,28.29
2023-03-29T08:43:22.228Z,28.15
2023-03-29T08:47:23.662Z,28.12
2023-03-29T08:51:22.191Z,28.11
2023-03-29T08:55:22.132Z,28.18
2023-03-29T08:59:22.120Z,28.23
2023-03-29T09:03:22.136Z,28.27
2023-03-29T09:07:23.525Z,28.38
2023-03-29T09:11:22.174Z,28.40
2023-03-29T09:15:22.994Z,28.44
2023-03-29T09:19:22.234Z,28.46
2023-03-29T09:23:21.933Z,28.53
2023-03-29T09:27:21.907Z,28.60
2023-03-29T09:31:22.625Z,28.60
2023-03-29T09:35:22.189Z,28.56
2023-03-29T09:39:24.768Z,28.69
2023-03-29T09:43:32.786Z,28.73
2023-03-29T09:47:21.675Z,28.75
2023-03-29T09:51:26.820Z,28.80
2023-03-29T09:55:22.316Z,28.81
2023-03-29T09:59:21.667Z,28.86
2023-03-29T10:03:21.788Z,28.84
2023-03-29T10:07:23.132Z,28.90
2023-03-29T10:11:22.246Z,28.91
2023-03-29T10:15:29.568Z,28.93
2023-03-29T10:19:23.188Z,28.98
2023-03-29T10:23:22.306Z,28.98
2023-03-29T10:27:22.252Z,29.04
2023-03-29T10:31:22.289Z,28.43
2023-03-29T10:35:22.654Z,28.05
2023-03-29T10:39:22.767Z,28.01
2023-03-29T10:43:22.477Z,28.11
2023-03-29T10:47:22.495Z,28.27
2023-03-29T10:51:22.581Z,28.42
2023-03-29T10:55:22.550Z,28.53
2023-03-29T10:59:22.529Z,28.64
2023-03-29T11:03:22.593Z,28.70
2023-03-29T11:07:22.448Z,28.74
2023-03-29T11:11:22.435Z,28.80
2023-03-29T11:15:22.365Z,28.81
2023-03-29T11:19:22.410Z,28.88
2023-03-29T11:23:22.800Z,28.91
2023-03-29T11:27:22.269Z,28.88
2023-03-29T11:31:22.275Z,28.84
2023-03-29T11:35:22.239Z,28.78
2023-03-29T11:39:22.136Z,28.74
2023-03-29T11:43:22.130Z,28.67
2023-03-29T11:47:22.088Z,28.60
2023-03-29T11:55:40.755Z,28.49
2023-03-29T11:59:40.705Z,28.42
2023-03-29T12:03:40.810Z,28.35
2023-03-29T12:07:40.644Z,28.33
2023-03-29T12:11:40.566Z,28.32
2023-03-29T12:15:40.546Z,28.30
2023-03-29T12:19:43.191Z,28.29
2023-03-29T12:23:40.523Z,28.26
2023-03-29T12:27:40.438Z,28.29
2023-03-29T12:31:40.464Z,28.26
2023-03-29T12:35:40.396Z,28.22
2023-03-29T12:39:40.354Z,28.22
2023-03-29T12:43:40.270Z,28.20
2023-03-29T12:47:40.545Z,28.22
2023-03-29T12:51:40.191Z,28.20
2023-03-29T12:55:40.467Z,28.20
2023-03-29T12:59:40.295Z,28.22
2023-03-29T13:03:40.582Z,28.25
2023-03-29T13:07:40.614Z,28.22
2023-03-29T13:11:40.786Z,28.20
2023-03-29T13:15:40.896Z,28.22
2023-03-29T13:19:41.025Z,28.22
2023-03-29T13:23:41.015Z,28.16
2023-03-29T13:27:41.068Z,28.18
2023-03-29T13:31:41.178Z,28.15
2023-03-29T13:35:41.133Z,28.15
2023-03-29T13:39:41.125Z,28.11
2023-03-29T13:43:41.022Z,28.08
2023-03-29T13:47:41.931Z,28.05
2023-03-29T13:51:41.065Z,28.05
2023-03-29T13:55:41.042Z,28.04
2023-03-29T13:59:40.960Z,28.05
2023-03-29T14:03:40.919Z,28.02
2023-03-29T14:07:40.930Z,27.99
2023-03-29T14:11:40.866Z,27.97
2023-03-29T14:15:40.812Z,27.99
2023-03-29T14:19:40.810Z,27.95
2023-03-29T14:23:40.789Z,27.95
2023-03-29T14:27:40.712Z,27.94
2023-03-29T14:31:40.742Z,27.91
2023-03-29T14:35:41.086Z,27.88
2023-03-29T14:39:40.587Z,27.88
2023-03-29T14:43:40.563Z,27.87
2023-03-29T14:47:40.537Z,27.88
2023-03-29T14:57:58.192Z,26.04
2023-03-29T14:58:58.145Z,26.40
2023-03-29T14:59:58.173Z,26.68
2023-03-29T15:00:58.181Z,26.86
2023-03-29T15:01:58.160Z,27.02
2023-03-29T15:02:58.246Z,27.15
2023-03-29T15:03:58.227Z,27.25
2023-03-29T15:04:58.097Z,27.32
2023-03-29T15:05:58.143Z,27.39
2023-03-29T15:06:58.136Z,27.44
2023-03-29T15:07:58.129Z,27.51
2023-03-29T15:09:05.182Z,27.54
2023-03-29T15:09:59.088Z,27.57
2023-03-29T15:10:58.104Z,27.61
2023-03-29T15:11:58.112Z,27.71
2023-03-29T15:12:58.086Z,27.70
2023-03-29T15:13:58.063Z,27.71
2023-03-29T15:14:58.061Z,27.74
2023-03-29T15:15:58.163Z,27.74
2023-03-29T15:16:58.051Z,27.78
2023-03-29T15:17:58.067Z,27.81
2023-03-29T15:18:58.095Z,27.81
2023-03-29T15:19:58.044Z,27.83
2023-03-29T15:20:58.044Z,27.80
2023-03-29T15:21:58.851Z,27.81
2023-03-29T15:22:58.018Z,27.81
2023-03-29T15:23:58.088Z,27.80
2023-03-29T15:24:58.148Z,27.83
2023-03-29T15:25:58.182Z,27.83
2023-03-29T15:26:58.182Z,27.81
2023-03-29T15:28:00.271Z,27.80
2023-03-29T15:28:58.257Z,27.81
2023-03-29T15:29:58.287Z,27.83
2023-03-29T15:31:07.209Z,27.81
2023-03-29T15:31:59.357Z,27.80
2023-03-29T15:32:58.379Z,27.81
2023-03-29T15:33:58.317Z,27.80
2023-03-29T15:34:58.220Z,27.83
2023-03-29T15:35:58.250Z,27.80
2023-03-29T15:36:58.190Z,27.83
2023-03-29T15:37:58.187Z,27.80
2023-03-29T15:38:58.166Z,27.78
2023-03-29T15:39:58.319Z,27.77
2023-03-29T15:40:58.344Z,27.75
2023-03-29T15:41:58.366Z,27.75
2023-03-29T15:42:58.272Z,27.71
2023-03-29T15:43:58.333Z,27.71
2023-03-29T15:44:58.337Z,27.71
2023-03-29T15:45:58.387Z,27.68
2023-03-29T15:46:58.378Z,27.68
2023-03-29T15:47:58.497Z,27.68
2023-03-29T15:48:58.358Z,27.67
2023-03-29T15:49:58.492Z,27.67
2023-03-29T15:51:01.991Z,27.68
2023-03-29T15:51:59.407Z,27.67
2023-03-29T15:53:05.409Z,27.65
2023-03-29T15:53:59.360Z,27.67
2023-03-29T15:54:58.344Z,27.67
2023-03-29T15:55:58.354Z,27.64
2023-03-29T15:56:58.407Z,27.64
2023-03-29T15:57:58.358Z,27.65
2023-03-29T15:58:58.325Z,27.65
2023-03-29T15:59:58.362Z,27.64
2023-03-29T16:00:58.473Z,27.67
2023-03-29T16:01:58.349Z,27.64
2023-03-29T16:02:58.344Z,27.64
2023-03-29T16:03:58.302Z,27.62
2023-03-29T16:04:58.295Z,27.62
2023-03-29T16:05:58.265Z,27.60
2023-03-29T16:06:58.256Z,27.61
2023-03-29T16:07:58.305Z,27.61
2023-03-29T16:08:58.241Z,27.61
2023-03-29T16:09:58.297Z,27.60
2023-03-29T16:10:58.252Z,27.60
2023-03-29T16:11:58.269Z,27.64
2023-03-29T16:12:58.209Z,27.61
2023-03-29T16:13:58.295Z,27.62
2023-03-29T16:14:58.209Z,27.61
2023-03-29T16:15:58.278Z,27.62
2023-03-29T16:16:58.264Z,27.64
2023-03-29T16:17:58.214Z,27.58
2023-03-29T16:18:58.155Z,27.62
2023-03-29T16:19:58.184Z,27.60
2023-03-29T16:20:58.216Z,27.60
2023-03-29T16:21:58.199Z,27.61
2023-03-29T16:22:58.173Z,27.62
2023-03-29T16:23:58.158Z,27.60
2023-03-29T16:24:58.163Z,27.61
2023-03-29T16:25:58.116Z,27.60
2023-03-29T16:26:58.146Z,27.58
2023-03-29T16:27:58.147Z,27.58
2023-03-29T16:28:58.112Z,27.58
2023-03-29T16:29:58.094Z,27.58
2023-03-29T16:30:58.096Z,27.57
2023-03-29T16:31:58.110Z,27.58
2023-03-29T16:32:58.089Z,27.60
2023-03-29T16:33:58.041Z,27.58
2023-03-29T16:34:58.084Z,27.57
2023-03-29T16:35:58.091Z,27.58
2023-03-29T16:36:58.080Z,27.58
2023-03-29T16:37:58.072Z,27.60
2023-03-29T16:38:58.054Z,27.57
2023-03-29T16:39:58.030Z,27.58
2023-03-29T16:40:58.061Z,27.58
2023-03-29T16:41:58.003Z,27.58
2023-03-29T16:42:58.094Z,27.57
2023-03-29T16:43:58.039Z,27.58
2023-03-29T16:44:58.003Z,27.58
2023-03-29T16:45:58.077Z,27.60
2023-03-29T16:46:58.001Z,27.58
2023-03-29T16:47:57.992Z,27.57
2023-03-29T16:48:58.003Z,27.57
2023-03-29T16:49:57.942Z,27.58
2023-03-29T16:50:57.967Z,27.56
2023-03-29T16:51:57.962Z,27.56
2023-03-29T16:52:57.935Z,27.60
2023-03-29T16:53:57.918Z,27.58
2023-03-29T16:54:57.929Z,27.54
2023-03-29T16:55:57.947Z,27.57
2023-03-29T16:56:57.987Z,27.57
2023-03-29T16:57:57.909Z,27.58
2023-03-29T16:58:57.906Z,27.57
2023-03-29T16:59:57.921Z,27.57
2023-03-29T17:00:57.917Z,27.57
2023-03-29T17:01:57.975Z,27.56
2023-03-29T17:02:57.935Z,27.54
2023-03-29T17:03:57.903Z,27.56
2023-03-29T17:04:57.851Z,27.53
2023-03-29T17:05:57.854Z,27.57
2023-03-29T17:06:57.889Z,27.56
2023-03-29T17:07:57.866Z,27.54
2023-03-29T17:08:57.870Z,27.57
2023-03-29T17:09:57.880Z,27.56
2023-03-29T17:10:57.957Z,27.56
2023-03-29T17:11:57.920Z,27.58
2023-03-29T17:12:57.852Z,27.56
2023-03-29T17:13:57.858Z,27.56
2023-03-29T17:14:57.887Z,27.56
2023-03-29T17:15:57.951Z,27.57
2023-03-29T17:16:57.854Z,27.57
2023-03-29T17:17:57.903Z,27.57
2023-03-29T17:18:57.900Z,27.60
2023-03-29T17:19:57.887Z,27.57
2023-03-29T17:20:57.918Z,27.56
2023-03-29T17:21:57.926Z,27.57
2023-03-29T17:22:57.910Z,27.56
2023-03-29T17:23:57.929Z,27.57
2023-03-29T17:24:57.916Z,27.58
2023-03-29T17:25:57.914Z,27.56
2023-03-29T17:26:57.945Z,27.56
2023-03-29T17:27:59.950Z,27.57
2023-03-29T17:28:57.934Z,27.54
2023-03-29T17:29:57.952Z,27.56
2023-03-29T17:30:58.016Z,27.58
2023-03-29T17:31:57.968Z,27.57
2023-03-29T17:32:57.997Z,27.56
2023-03-29T17:33:57.985Z,27.58
2023-03-29T17:34:57.997Z,27.56
2023-03-29T17:35:58.003Z,27.56
2023-03-29T17:36:57.997Z,27.56
2023-03-29T17:38:12.949Z,27.56
2023-03-29T17:38:58.839Z,27.56
2023-03-29T17:39:57.996Z,27.54
2023-03-29T17:40:57.957Z,27.56
2023-03-29T17:41:57.965Z,27.54
2023-03-29T17:42:57.967Z,27.56
2023-03-29T17:43:58.012Z,27.58
2023-03-29T17:44:57.965Z,27.56
2023-03-29T17:45:57.966Z,27.56
2023-03-29T17:46:58.055Z,27.57
2023-03-29T17:47:57.979Z,27.57
2023-03-29T17:48:57.939Z,27.56
2023-03-29T17:49:58.024Z,27.56
2023-03-29T17:50:57.922Z,27.56
2023-03-29T17:51:57.884Z,27.56
2023-03-29T17:52:57.871Z,27.54
2023-03-29T17:53:57.903Z,27.56
2023-03-29T17:54:57.874Z,27.57
2023-03-29T17:55:57.873Z,27.60
2023-03-29T17:56:57.913Z,27.61
2023-03-29T17:57:57.890Z,27.62
2023-03-29T17:58:57.907Z,27.61
2023-03-29T17:59:57.951Z,27.60
2023-03-29T18:00:58.039Z,27.62
2023-03-29T18:01:58.037Z,27.64
2023-03-29T18:02:58.166Z,27.65
2023-03-29T18:03:58.179Z,27.64
2023-03-29T18:04:58.200Z,27.64
2023-03-29T18:05:58.331Z,27.64
2023-03-29T18:06:58.301Z,27.65
2023-03-29T18:07:58.371Z,27.65
2023-03-29T18:08:58.431Z,27.60
2023-03-29T18:09:58.502Z,27.61
2023-03-29T18:10:58.580Z,27.61
2023-03-29T18:11:58.642Z,27.60
2023-03-29T18:12:58.679Z,27.60
2023-03-29T18:13:58.730Z,27.58
2023-03-29T18:14:58.764Z,27.56
2023-03-29T18:15:58.788Z,27.54
2023-03-29T18:16:58.890Z,27.57
2023-03-29T18:17:58.935Z,27.56
2023-03-29T18:18:58.942Z,27.54
2023-03-29T18:19:58.901Z,27.54
2023-03-29T18:20:58.879Z,27.51
2023-03-29T18:21:58.919Z,27.51
2023-03-29T18:22:58.915Z,27.50
2023-03-29T18:23:58.960Z,27.49
2023-03-29T18:24:58.993Z,27.46
2023-03-29T18:25:59.046Z,27.46
2023-03-29T18:26:59.098Z,27.41
2023-03-29T18:27:59.159Z,27.41
2023-03-29T18:28:59.209Z,27.40
2023-03-29T18:29:59.250Z,27.39
2023-03-29T18:30:59.330Z,27.39
2023-03-29T18:31:59.382Z,27.40
2023-03-29T18:32:59.487Z,27.36
2023-03-29T18:33:59.450Z,27.37
2023-03-29T18:34:59.487Z,27.34
2023-03-29T18:35:59.562Z,27.37
2023-03-29T18:36:59.533Z,27.37
2023-03-29T18:37:59.565Z,27.37
2023-03-29T18:38:59.612Z,27.36
2023-03-29T18:39:59.659Z,27.36
2023-03-29T18:40:59.665Z,27.36
2023-03-29T18:41:59.706Z,27.37
2023-03-29T18:42:59.742Z,27.36
2023-03-29T18:43:59.769Z,27.34
2023-03-29T18:44:59.793Z,27.36
2023-03-29T18:45:59.874Z,27.39
2023-03-29T18:46:59.830Z,27.37
2023-03-29T18:47:59.972Z,27.37
2023-03-29T18:48:59.919Z,27.37
2023-03-29T18:49:59.919Z,27.37
2023-03-29T18:51:00.004Z,27.36
2023-03-29T18:51:59.968Z,27.36
2023-03-29T18:53:00.002Z,27.37
2023-03-29T18:54:00.061Z,27.39
2023-03-29T18:55:00.093Z,27.37
2023-03-29T18:56:00.183Z,27.36
2023-03-29T18:57:00.166Z,27.37
2023-03-29T18:58:00.159Z,27.37
2023-03-29T18:59:00.185Z,27.37
2023-03-29T19:00:00.204Z,27.37
2023-03-29T19:01:00.252Z,27.39
2023-03-29T19:02:00.271Z,27.39
2023-03-29T19:03:00.430Z,27.37
2023-03-29T19:04:00.326Z,27.36
2023-03-29T19:05:00.366Z,27.39
2023-03-29T19:06:00.504Z,27.34
2023-03-29T19:07:00.383Z,27.36
2023-03-29T19:08:00.425Z,27.36
2023-03-29T19:09:00.444Z,27.37
2023-03-29T19:10:00.484Z,27.39
2023-03-29T19:11:00.548Z,27.39
2023-03-29T19:12:00.521Z,27.37
2023-03-29T19:13:00.554Z,27.34
2023-03-29T19:14:00.616Z,27.34
2023-03-29T19:15:00.632Z,27.36
2023-03-29T19:16:00.788Z,27.36
2023-03-29T19:17:00.670Z,27.36
2023-03-29T19:18:00.718Z,27.36
2023-03-29T19:19:00.714Z,27.37
2023-03-29T19:20:00.751Z,27.37
2023-03-29T19:21:00.794Z,27.32
2023-03-29T19:22:00.986Z,27.37
2023-03-29T19:23:00.854Z,27.36
2023-03-29T19:24:00.844Z,27.37
2023-03-29T19:25:00.837Z,27.37
2023-03-29T19:26:01.028Z,27.36
2023-03-29T19:27:00.936Z,27.37
2023-03-29T19:28:00.928Z,27.34
2023-03-29T19:29:00.986Z,27.36
2023-03-29T19:30:01.036Z,27.36
2023-03-29T19:31:01.080Z,27.36
2023-03-29T19:32:01.068Z,27.34
2023-03-29T19:33:01.120Z,27.34
2023-03-29T19:34:01.107Z,27.33
2023-03-29T19:35:01.108Z,27.34
2023-03-29T19:36:01.264Z,27.33
2023-03-29T19:37:01.183Z,27.32
2023-03-29T19:38:01.209Z,27.36
2023-03-29T19:39:01.261Z,27.33
2023-03-29T19:40:01.279Z,27.34
2023-03-29T19:41:01.297Z,27.36
2023-03-29T19:42:01.299Z,27.34
2023-03-29T19:43:01.332Z,27.34
2023-03-29T19:44:01.345Z,27.34
2023-03-29T19:45:01.433Z,27.34
2023-03-29T19:46:01.501Z,27.34
2023-03-29T19:47:01.501Z,27.36
2023-03-29T19:49:03.149Z,27.32
2023-03-29T19:50:01.515Z,27.33
2023-03-29T19:51:01.519Z,27.33
2023-03-29T19:52:01.500Z,27.33
2023-03-29T19:53:01.557Z,27.34
2023-03-29T19:54:01.476Z,27.36
2023-03-29T19:55:01.454Z,27.33
2023-03-29T19:56:01.745Z,27.33
2023-03-29T19:57:01.479Z,27.34
2023-03-29T19:58:01.474Z,27.33
2023-03-29T19:59:01.438Z,27.34
2023-03-29T20:00:01.486Z,27.34
2023-03-29T20:01:01.581Z,27.32
2023-03-29T20:02:01.443Z,27.33
2023-03-29T20:03:01.470Z,27.30
2023-03-29T20:04:01.410Z,27.32
2023-03-29T20:05:01.382Z,27.32
2023-03-29T20:06:01.415Z,27.33
2023-03-29T20:07:01.368Z,27.32
2023-03-29T20:08:01.375Z,27.30
2023-03-29T20:09:01.334Z,27.32
2023-03-29T20:10:01.384Z,27.30
2023-03-29T20:11:01.556Z,27.32
2023-03-29T20:12:01.402Z,27.33
2023-03-29T20:13:01.365Z,27.32
2023-03-29T20:14:01.322Z,27.30
2023-03-29T20:15:01.334Z,27.30
2023-03-29T20:16:01.416Z,27.28
2023-03-29T20:17:01.298Z,27.29
2023-03-29T20:18:01.371Z,27.30
2023-03-29T20:19:01.299Z,27.32
2023-03-29T20:20:01.299Z,27.30
2023-03-29T20:21:01.513Z,27.28
2023-03-29T20:22:01.265Z,27.29
2023-03-29T20:23:04.393Z,27.29
2023-03-29T20:24:01.279Z,27.30
2023-03-29T20:25:01.236Z,27.30
2023-03-29T20:26:01.246Z,27.28
2023-03-29T20:27:01.251Z,27.30
2023-03-29T20:28:01.202Z,27.29
2023-03-29T20:29:01.209Z,27.30
2023-03-29T20:30:01.220Z,27.29
2023-03-29T20:31:01.532Z,27.29
2023-03-29T20:32:01.312Z,27.28
2023-03-29T20:33:01.248Z,27.32
2023-03-29T20:34:01.201Z,27.29
2023-03-29T20:35:01.213Z,27.29
2023-03-29T20:36:01.392Z,27.30
2023-03-29T20:37:01.227Z,27.29
2023-03-29T20:38:01.137Z,27.26
2023-03-29T20:39:01.203Z,27.26
2023-03-29T20:40:01.128Z,27.30
2023-03-29T20:41:01.338Z,27.28
2023-03-29T20:42:01.186Z,27.28
2023-03-29T20:43:01.102Z,27.29
2023-03-29T20:44:01.106Z,27.28
2023-03-29T20:45:01.167Z,27.26
2023-03-29T20:46:01.169Z,27.28
2023-03-29T20:47:01.105Z,27.28
2023-03-29T20:48:01.130Z,27.28
2023-03-29T20:49:01.102Z,27.25
2023-03-29T20:50:01.128Z,27.28
2023-03-29T20:51:01.270Z,27.26
2023-03-29T20:52:01.055Z,27.29
2023-03-29T20:53:01.044Z,27.26
2023-03-29T20:54:01.048Z,27.25
2023-03-29T20:55:01.044Z,27.26
2023-03-29T20:56:01.067Z,27.26
2023-03-29T20:57:01.136Z,27.26
2023-03-29T20:58:01.004Z,27.26
2023-03-29T20:59:01.008Z,27.26
2023-03-29T21:00:01.030Z,27.26
2023-03-29T21:01:01.161Z,27.25
2023-03-29T21:02:01.022Z,27.25
2023-03-29T21:03:01.158Z,27.25
2023-03-29T21:04:00.936Z,27.26
2023-03-29T21:05:00.995Z,27.26
2023-03-29T21:06:01.009Z,27.25
2023-03-29T21:07:03.311Z,27.25
2023-03-29T21:08:01.124Z,27.25
2023-03-29T21:09:01.141Z,27.23
2023-03-29T21:10:01.203Z,27.23
2023-03-29T21:11:01.255Z,27.23
2023-03-29T21:12:01.248Z,27.23
2023-03-29T21:13:01.266Z,27.25
2023-03-29T21:14:01.315Z,27.23
2023-03-29T21:15:01.370Z,27.25
2023-03-29T21:16:01.457Z,27.26
2023-03-29T21:17:01.448Z,27.25
2023-03-29T21:18:01.500Z,27.25
2023-03-29T21:19:01.499Z,27.23
2023-03-29T21:20:01.521Z,27.23
2023-03-29T21:21:01.772Z,27.22
2023-03-29T21:22:01.620Z,27.22
2023-03-29T21:23:01.688Z,27.23
2023-03-29T21:24:01.693Z,27.22
2023-03-29T21:25:01.688Z,27.23
2023-03-29T21:26:01.749Z,27.23
2023-03-29T21:27:01.808Z,27.25
2023-03-29T21:28:01.873Z,27.23
2023-03-29T21:29:01.901Z,27.23
2023-03-29T21:30:01.884Z,27.23
2023-03-29T21:31:02.201Z,27.21
2023-03-29T21:32:02.080Z,27.21
2023-03-29T21:33:02.119Z,27.22
2023-03-29T21:34:02.063Z,27.23
2023-03-29T21:35:02.117Z,27.21
2023-03-29T21:36:02.263Z,27.21
2023-03-29T21:37:02.193Z,27.22
2023-03-29T21:38:02.202Z,27.22
2023-03-29T21:39:02.253Z,27.23
2023-03-29T21:40:02.285Z,27.22
2023-03-29T21:41:02.558Z,27.21
2023-03-29T21:42:02.378Z,27.21
2023-03-29T21:43:02.437Z,27.23
2023-03-29T21:44:02.427Z,27.22
2023-03-29T21:45:02.495Z,27.22
2023-03-29T21:46:02.519Z,27.21
2023-03-29T21:47:02.609Z,27.21
2023-03-29T21:48:02.650Z,27.21
2023-03-29T21:49:02.700Z,27.22
2023-03-29T21:50:02.699Z,27.21
2023-03-29T21:51:02.997Z,27.22
2023-03-29T21:52:02.798Z,27.21
2023-03-29T21:53:02.815Z,27.17
2023-03-29T21:54:02.861Z,27.22
2023-03-29T21:55:02.928Z,27.19
2023-03-29T21:56:02.984Z,27.21
2023-03-29T21:57:03.010Z,27.19
2023-03-29T21:58:03.048Z,27.17
2023-03-29T21:59:03.067Z,27.17
2023-03-29T22:00:03.126Z,27.19
2023-03-29T22:01:03.306Z,27.21
2023-03-29T22:02:03.236Z,27.21
2023-03-29T22:03:03.289Z,27.19
2023-03-29T22:04:03.287Z,27.21
2023-03-29T22:05:03.293Z,27.19
2023-03-29T22:06:03.353Z,27.21
2023-03-29T22:07:03.427Z,27.17
2023-03-29T22:08:03.436Z,27.19
2023-03-29T22:09:03.489Z,27.17
2023-03-29T22:10:03.540Z,27.17
2023-03-29T22:11:03.755Z,27.21
2023-03-29T22:12:03.600Z,27.16
2023-03-29T22:13:03.655Z,27.21
2023-03-29T22:14:03.694Z,27.17
2023-03-29T22:15:03.722Z,27.17
2023-03-29T22:16:03.953Z,27.21
2023-03-29T22:17:03.842Z,27.17
2023-03-29T22:18:03.948Z,27.17
2023-03-29T22:19:03.947Z,27.17
2023-03-29T22:20:03.973Z,27.19
2023-03-29T22:21:04.244Z,27.16
2023-03-29T22:22:04.033Z,27.17
2023-03-29T22:23:04.134Z,27.16
2023-03-29T22:24:04.140Z,27.19
2023-03-29T22:25:04.210Z,27.17
2023-03-29T22:26:04.252Z,27.16
2023-03-29T22:27:04.321Z,27.15
2023-03-29T22:28:04.333Z,27.16
2023-03-29T22:29:04.376Z,27.15
2023-03-29T22:30:04.433Z,27.17
2023-03-29T22:31:04.645Z,27.15
2023-03-29T22:32:04.599Z,27.16
2023-03-29T22:33:04.630Z,27.17
2023-03-29T22:34:04.619Z,27.16
2023-03-29T22:35:04.683Z,27.19
2023-03-29T22:36:04.764Z,27.16
2023-03-29T22:37:04.804Z,27.16
2023-03-29T22:38:04.809Z,27.15
2023-03-29T22:39:04.857Z,27.16
2023-03-29T22:40:04.963Z,27.15
2023-03-29T22:41:05.384Z,27.15
2023-03-29T22:42:05.039Z,27.16
2023-03-29T22:43:05.563Z,27.17
2023-03-29T22:44:05.098Z,27.15
2023-03-29T22:45:05.154Z,27.16
2023-03-29T22:46:05.304Z,27.16
2023-03-29T22:47:05.264Z,27.15
2023-03-29T22:48:05.367Z,27.15
2023-03-29T22:49:05.351Z,27.12
2023-03-29T22:50:05.445Z,27.15
2023-03-29T22:51:05.685Z,27.15
2023-03-29T22:52:05.501Z,27.15
2023-03-29T22:53:05.564Z,27.16
2023-03-29T22:54:05.619Z,27.15
2023-03-29T22:55:05.679Z,27.13
2023-03-29T22:56:05.727Z,27.13
2023-03-29T22:57:05.843Z,27.13
2023-03-29T22:58:05.803Z,27.13
2023-03-29T22:59:05.869Z,27.13
2023-03-29T23:00:05.927Z,27.15
2023-03-29T23:01:06.325Z,27.13
2023-03-29T23:02:06.108Z,27.13
2023-03-29T23:03:06.109Z,27.13
2023-03-29T23:04:06.181Z,27.16
2023-03-29T23:05:06.172Z,27.12
2023-03-29T23:06:06.219Z,27.13
2023-03-29T23:07:06.275Z,27.10
2023-03-29T23:08:06.339Z,27.13
2023-03-29T23:09:06.355Z,27.12
2023-03-29T23:10:06.435Z,27.13
2023-03-29T23:11:06.710Z,27.13
2023-03-29T23:12:06.514Z,27.12
2023-03-29T23:13:06.564Z,27.16
2023-03-29T23:14:06.618Z,27.15
2023-03-29T23:15:06.641Z,27.13
2023-03-29T23:16:06.768Z,27.09
2023-03-29T23:17:06.756Z,27.10
2023-03-29T23:18:06.846Z,27.09
2023-03-29T23:19:06.867Z,27.07
2023-03-29T23:20:06.873Z,27.13
2023-03-29T23:21:07.184Z,27.12
2023-03-29T23:22:06.983Z,27.13
2023-03-29T23:23:07.042Z,27.12
2023-03-29T23:24:07.125Z,27.13
2023-03-29T23:25:07.136Z,27.10
2023-03-29T23:26:07.164Z,27.13
2023-03-29T23:27:07.245Z,27.12
2023-03-29T23:28:07.283Z,27.12
2023-03-29T23:29:08.036Z,27.12
2023-03-29T23:30:07.410Z,27.09
2023-03-29T23:31:07.846Z,27.12
2023-03-29T23:32:07.524Z,27.10
2023-03-29T23:33:07.627Z,27.10
2023-03-29T23:34:07.606Z,27.12
2023-03-29T23:35:07.667Z,27.10
2023-03-29T23:36:07.861Z,27.10
2023-03-29T23:37:07.765Z,27.09
2023-03-29T23:38:07.845Z,27.09
2023-03-29T23:39:07.889Z,27.10
2023-03-29T23:40:07.940Z,27.10
2023-03-29T23:41:08.024Z,27.09
2023-03-29T23:42:08.063Z,27.07
2023-03-29T23:43:08.103Z,27.12
2023-03-29T23:44:08.158Z,27.10
2023-03-29T23:45:08.223Z,27.07
2023-03-29T23:46:08.297Z,27.12
2023-03-29T23:47:08.450Z,27.09
2023-03-29T23:48:08.404Z,27.10
2023-03-29T23:49:08.401Z,27.09
2023-03-29T23:50:08.514Z,27.12
2023-03-29T23:51:08.512Z,27.09
2023-03-29T23:52:08.621Z,27.09
2023-03-29T23:53:08.636Z,27.07
2023-03-29T23:54:08.740Z,27.06
2023-03-29T23:55:08.795Z,27.06
2023-03-29T23:56:08.863Z,27.09
2023-03-29T23:57:08.951Z,27.09
2023-03-29T23:58:08.959Z,27.05
2023-03-29T23:59:08.973Z,27.07
